Main page
METAR-TAF:

METAR-TAF

Airports :

Inverness, Scotland

Inverness Airport

latitude: 57-32N, longitude: 004-03W, elevation: 9 m

Current weather observation

The report was made 28 minutes ago, at 08:50 UTC
Wind 7 kt from the East
Temperature 8°C
Humidity 87%
Pressure 1015 hPa
Visibility: 4500 m
Few clouds at a height of 400 ft
Broken clouds at a height of 800 ft
mist

METAR: EGPE 290850Z 08007KT 4500 BR FEW004 BKN008 08/06 Q1015

Time: 10:18 (09:18 UTC)

Forecast

The report was made 1 hour and 21 minutes ago, at 07:57 UTC
Forecast valid from 29 at 09 UTC to 29 at 18 UTC
Wind 7 kt from the East/Northeast
Visibility 10 km or more
Scattered clouds at a height of 2500 ft
Temporary
from 29 at 09 UTC to 29 at 13 UTC
Visibility: 6000 m
Broken clouds at a height of 800 ft
light rain, drizzle
Probability 30% :
Temporary
from 29 at 09 UTC to 29 at 12 UTC
Visibility: 4000 m
mist

TAF: EGPE 290757Z 2909/2918 06007KT 9999 SCT025 TEMPO 2909/2913 6000 -RADZ BKN008 PROB30 TEMPO 2909/2912 4000 BR

Weather observations and forecasts of more than 4000 airports (METAR and TAF reports).

The available stations are represented by yellow and red dots on the map.

Hover mouse over dot to see the name of the station.

Then click to see weather observations and forecasts.

To change the map : click on the green buttons with a black cross to zoom in, on the green button with a dash to zoom out, or on the green arrows for adjacent maps.


METAR-TAF: